Time;durP1;ratioP1;P1;durP2;ratioP2;P2;SDS_P1;SDS_P2;PMS_P1;PMS_P2;Temp;Humidity;BMP_temperature;BMP_pressure;BME280_temperature;BME280_humidity;BME280_pressure;Samples;Min_cycle;Max_cycle;Signal;HPM_P1;HPM_P2
2021/03/20 00:00:23;;;;;;;6.35;3.05;;;;;;;-3.58;74.53;102856.25;5041963;28;20029;-73
2021/03/20 00:02:49;;;;;;;8.70;3.25;;;;;;;-3.59;74.71;102865.06;5036279;28;20055;-73
2021/03/20 00:05:14;;;;;;;9.95;3.25;;;;;;;-3.62;74.80;102867.84;5041050;28;20229;-72
2021/03/20 00:07:41;;;;;;;6.07;2.60;;;;;;;-3.68;75.03;102865.66;5041925;28;20056;-73
2021/03/20 00:10:11;;;;;;;9.43;2.25;;;;;;;-3.59;74.74;102872.06;5045313;28;20544;-73
2021/03/20 00:12:37;;;;;;;3.88;1.98;;;;;;;-3.57;74.28;102876.28;5038020;28;20018;-73
2021/03/20 00:15:04;;;;;;;8.82;2.63;;;;;;;-3.57;74.99;102875.44;5040724;28;20094;-73
2021/03/20 00:17:30;;;;;;;7.57;3.05;;;;;;;-3.54;74.25;102870.81;5039227;28;20029;-71
2021/03/20 00:19:55;;;;;;;21.45;6.72;;;;;;;-3.43;74.00;102872.69;5042717;28;20111;-80
2021/03/20 00:22:21;;;;;;;15.43;7.45;;;;;;;-3.44;73.82;102878.88;5040390;28;20522;-76
2021/03/20 00:24:46;;;;;;;10.93;5.47;;;;;;;-3.40;73.76;102877.75;5046050;28;20058;-72
2021/03/20 00:27:12;;;;;;;11.32;4.95;;;;;;;-3.38;74.21;102865.38;5046759;28;20646;-79
2021/03/20 00:29:38;;;;;;;6.55;2.80;;;;;;;-3.36;73.61;102874.81;5043504;28;20033;-73
2021/03/20 00:32:03;;;;;;;8.18;2.50;;;;;;;-3.29;74.17;102874.38;5040293;28;20033;-70
2021/03/20 00:34:29;;;;;;;5.93;2.08;;;;;;;-3.24;73.73;102867.84;5043701;28;20048;-76
2021/03/20 00:36:54;;;;;;;7.88;2.45;;;;;;;-3.25;73.65;102866.19;5051427;28;20041;-75
2021/03/20 00:39:20;;;;;;;4.57;2.20;;;;;;;-3.19;73.45;102868.41;5042733;28;20702;-73
2021/03/20 00:41:46;;;;;;;8.57;3.10;;;;;;;-3.28;74.40;102870.81;5042973;28;20044;-75
2021/03/20 00:44:12;;;;;;;12.85;3.33;;;;;;;-3.23;73.53;102866.94;5045751;28;20025;-77
2021/03/20 00:46:37;;;;;;;8.45;3.70;;;;;;;-3.26;74.31;102874.16;5043948;28;20029;-77
2021/03/20 00:49:03;;;;;;;5.68;3.35;;;;;;;-3.20;73.81;102866.72;5042562;28;20438;-73
2021/03/20 00:51:29;;;;;;;6.90;3.22;;;;;;;-3.17;73.96;102870.91;5039127;28;20032;-76
2021/03/20 00:53:55;;;;;;;9.30;3.28;;;;;;;-3.15;73.45;102875.09;5045598;28;20033;-73
2021/03/20 00:56:21;;;;;;;4.57;2.60;;;;;;;-3.18;73.82;102877.94;5046221;28;20082;-72
2021/03/20 00:58:46;;;;;;;7.18;2.85;;;;;;;-3.19;73.63;102870.19;5042697;28;20793;-76
2021/03/20 01:01:15;;;;;;;7.20;2.70;;;;;;;-3.24;74.44;102865.22;5041819;28;20116;-75
2021/03/20 01:03:41;;;;;;;6.63;2.22;;;;;;;-3.27;74.67;102869.84;5034130;28;20032;-73
2021/03/20 01:06:10;;;;;;;5.20;2.22;;;;;;;-3.23;73.84;102858.22;5039050;28;20040;-72
2021/03/20 01:08:36;;;;;;;5.47;2.50;;;;;;;-3.36;74.82;102853.84;5041386;28;20102;-73
2021/03/20 01:11:03;;;;;;;6.22;3.10;;;;;;;-3.33;74.99;102852.78;5040254;28;20574;-78
2021/03/20 01:13:29;;;;;;;3.88;1.88;;;;;;;-3.39;75.66;102851.44;5046152;28;20078;-73
2021/03/20 01:15:55;;;;;;;7.47;2.15;;;;;;;-3.46;76.38;102852.78;5038815;28;20074;-71
2021/03/20 01:18:21;;;;;;;5.95;2.25;;;;;;;-3.44;75.86;102850.03;5037434;28;20781;-71
2021/03/20 01:20:47;;;;;;;7.30;2.88;;;;;;;-3.40;75.51;102847.13;5037395;28;20809;-71
2021/03/20 01:23:13;;;;;;;3.92;1.90;;;;;;;-3.37;75.54;102841.66;5035079;28;20075;-71
2021/03/20 01:25:40;;;;;;;4.05;1.77;;;;;;;-3.35;75.25;102845.03;5035092;28;20078;-70
2021/03/20 01:28:07;;;;;;;6.72;2.40;;;;;;;-3.38;75.16;102841.78;5038805;28;20047;-70
2021/03/20 01:30:36;;;;;;;6.10;1.92;;;;;;;-3.42;75.02;102846.38;5038364;28;20025;-70
2021/03/20 01:33:02;;;;;;;6.57;1.98;;;;;;;-3.44;75.88;102840.41;5039368;28;20151;-70
2021/03/20 01:35:28;;;;;;;5.25;1.95;;;;;;;-3.48;75.37;102846.81;5036013;28;20135;-70
2021/03/20 01:37:54;;;;;;;9.52;2.30;;;;;;;-3.42;75.36;102843.75;5037824;28;20037;-70
2021/03/20 01:40:33;;;;;;;5.78;1.42;;;;;;;-3.41;75.40;102834.97;5036344;28;20101;-71
2021/03/20 01:42:58;;;;;;;3.70;1.73;;;;;;;-3.25;74.14;102834.72;5043289;28;20375;-71
2021/03/20 01:45:30;;;;;;;2.97;1.40;;;;;;;-3.20;73.93;102829.19;5040768;28;20025;-71
2021/03/20 01:47:55;;;;;;;2.65;1.35;;;;;;;-3.23;73.96;102830.25;5037109;28;20029;-70
2021/03/20 01:50:41;;;;;;;4.03;1.45;;;;;;;-3.24;73.96;102832.94;5039364;28;20028;-71
2021/03/20 01:53:36;;;;;;;3.50;1.20;;;;;;;-3.18;73.44;102830.75;5047901;28;20509;-70
2021/03/20 01:56:06;;;;;;;4.55;1.80;;;;;;;-3.10;73.44;102827.56;5049843;28;20120;-71
2021/03/20 01:58:32;;;;;;;5.00;1.73;;;;;;;-3.06;73.40;102836.88;5044774;28;20483;-72
2021/03/20 02:01:11;;;;;;;3.40;1.60;;;;;;;-3.00;72.96;102826.00;5045658;28;20144;-71
2021/03/20 02:03:38;;;;;;;4.80;1.70;;;;;;;-2.98;73.22;102828.50;5039329;28;20075;-71
2021/03/20 02:06:05;;;;;;;6.05;1.70;;;;;;;-2.93;72.85;102829.00;5034623;28;20033;-71
2021/03/20 02:08:31;;;;;;;3.08;1.55;;;;;;;-2.84;72.40;102823.94;5039343;28;20048;-71
2021/03/20 02:11:35;;;;;;;5.43;1.58;;;;;;;-2.89;72.99;102819.97;5045182;28;20052;-70
2021/03/20 02:14:20;;;;;;;4.80;1.40;;;;;;;-2.84;72.21;102829.19;5048179;28;20029;-71
2021/03/20 02:16:52;;;;;;;;;;;;;;;-2.91;72.24;102819.25;5038767;28;20087;-70
2021/03/20 02:19:49;;;;;;;4.68;1.55;;;;;;;-3.02;72.55;102822.63;5056870;28;19956;-70
2021/03/20 02:22:24;;;;;;;2.50;1.90;;;;;;;-2.90;72.06;102820.91;5052346;28;20648;-71
2021/03/20 02:25:27;;;;;;;4.97;1.60;;;;;;;-2.87;72.16;102826.81;5036353;28;20033;-71
2021/03/20 02:28:14;;;;;;;6.10;1.70;;;;;;;-2.79;72.13;102829.69;5036038;28;20037;-70
2021/03/20 02:31:07;;;;;;;2.67;1.77;;;;;;;-2.72;71.82;102829.25;5032492;28;20039;-71
2021/03/20 02:33:47;;;;;;;3.30;1.50;;;;;;;-2.74;71.83;102824.94;5043470;28;20487;-71
2021/03/20 02:36:52;;;;;;;3.33;1.50;;;;;;;-2.69;71.76;102824.66;5040132;28;20035;-70
2021/03/20 02:39:45;;;;;;;4.75;1.38;;;;;;;-2.66;71.24;102815.72;5042507;28;20112;-70
2021/03/20 02:42:15;;;;;;;4.18;1.10;;;;;;;-2.63;71.65;102815.47;5045932;28;20032;-70
2021/03/20 02:44:43;;;;;;;4.53;1.48;;;;;;;-2.60;70.97;102815.25;5037072;28;20029;-71
2021/03/20 02:47:17;;;;;;;7.05;1.60;;;;;;;-2.66;71.64;102815.72;5039652;28;20033;-71
2021/03/20 02:50:19;;;;;;;5.72;1.60;;;;;;;-2.67;71.31;102824.53;5037749;28;20056;-70
2021/03/20 02:52:52;;;;;;;3.47;1.50;;;;;;;-2.75;72.70;102828.53;5039675;28;20033;-70
2021/03/20 02:55:52;;;;;;;6.68;1.65;;;;;;;-2.62;72.18;102831.13;5036221;28;20108;-71
2021/03/20 02:58:22;;;;;;;2.78;1.42;;;;;;;-2.59;71.20;102827.44;5036835;28;20033;-70
2021/03/20 03:00:52;;;;;;;5.38;1.55;;;;;;;-2.57;71.30;102821.13;5041254;28;20037;-70
2021/03/20 03:03:20;;;;;;;4.40;1.52;;;;;;;-2.52;71.39;102824.22;5042492;28;20124;-70
2021/03/20 03:05:57;;;;;;;3.10;1.08;;;;;;;-2.50;71.47;102829.41;5033581;28;20507;-70
2021/03/20 03:08:44;;;;;;;7.38;1.73;;;;;;;-2.51;71.48;102827.72;5042189;28;20413;-70
2021/03/20 03:11:14;;;;;;;6.55;2.05;;;;;;;-2.47;71.25;102832.63;5038801;28;20028;-70
2021/03/20 03:13:45;;;;;;;4.55;2.08;;;;;;;-2.55;72.77;102844.63;5041375;28;20503;-71
2021/03/20 03:16:18;;;;;;;2.78;1.70;;;;;;;-2.52;71.89;102837.34;5038593;28;20029;-71
2021/03/20 03:18:48;;;;;;;4.63;1.50;;;;;;;-2.49;71.94;102833.69;5036553;28;20120;-70
2021/03/20 03:21:17;;;;;;;3.30;1.42;;;;;;;-2.42;72.04;102834.91;5041484;28;20024;-70
2021/03/20 03:23:43;;;;;;;4.03;1.52;;;;;;;-2.41;71.83;102836.59;5036875;28;20045;-70
2021/03/20 03:26:17;;;;;;;6.50;1.67;;;;;;;-2.42;71.43;102839.31;5038825;28;20438;-70
2021/03/20 03:28:53;;;;;;;5.07;1.63;;;;;;;-2.40;71.37;102830.38;5045036;28;20033;-70
2021/03/20 03:31:42;;;;;;;6.00;1.80;;;;;;;-2.38;71.20;102838.97;5044644;28;20057;-70
2021/03/20 03:34:17;;;;;;;2.35;1.38;;;;;;;-2.39;71.57;102832.06;5037674;28;20039;-70
2021/03/20 03:36:59;;;;;;;3.92;2.13;;;;;;;-2.39;71.32;102826.81;5034913;28;20029;-70
2021/03/20 03:39:25;;;;;;;3.08;1.50;;;;;;;-2.31;70.97;102829.72;5042882;28;20032;-70
2021/03/20 03:41:50;;;;;;;2.58;1.80;;;;;;;-2.29;71.21;102835.69;5045427;28;20848;-70
2021/03/20 03:44:16;;;;;;;4.68;1.60;;;;;;;-2.27;71.09;102828.53;5037895;28;20032;-71
2021/03/20 03:46:45;;;;;;;4.05;1.50;;;;;;;-2.23;71.25;102832.59;5038966;28;20061;-70
2021/03/20 03:49:16;;;;;;;3.67;1.48;;;;;;;-2.20;71.59;102828.91;5043982;28;20391;-70
2021/03/20 03:51:41;;;;;;;4.07;2.03;;;;;;;-2.18;71.43;102840.13;5039728;28;20025;-70
2021/03/20 03:54:07;;;;;;;3.33;2.00;;;;;;;-2.16;71.38;102830.34;5042258;28;20029;-70
2021/03/20 03:57:07;;;;;;;3.50;2.05;;;;;;;-2.18;71.92;102825.22;5034372;28;20411;-71
2021/03/20 03:59:42;;;;;;;4.50;2.25;;;;;;;-2.19;72.49;102825.34;5036490;28;20017;-71
2021/03/20 04:02:26;;;;;;;;;;;;;;;-2.43;73.75;102827.97;5038667;28;20108;-70
2021/03/20 04:05:03;;;;;;;3.50;1.80;;;;;;;-2.38;72.85;102827.66;5039445;28;19935;-70
2021/03/20 04:07:44;;;;;;;5.72;1.85;;;;;;;-2.37;73.11;102811.78;5038238;28;20039;-71
2021/03/20 04:10:18;;;;;;;5.78;1.52;;;;;;;-2.55;72.97;102811.34;5032739;28;20522;-70
2021/03/20 04:13:05;;;;;;;11.27;1.98;;;;;;;-2.71;74.51;102815.19;5041540;28;20037;-71
2021/03/20 04:15:37;;;;;;;3.65;1.40;;;;;;;-2.75;74.73;102812.78;5042179;28;20033;-71
2021/03/20 04:18:22;;;;;;;3.15;1.50;;;;;;;-2.77;74.65;102817.31;5036936;28;20052;-71
2021/03/20 04:21:06;;;;;;;;;;;;;;;-2.84;75.39;102820.50;5055971;28;20056;-71
2021/03/20 04:23:35;;;;;;;5.00;1.90;;;;;;;-2.76;74.79;102818.97;5037282;28;19923;-71
2021/03/20 04:26:04;;;;;;;5.10;2.05;;;;;;;-2.76;74.67;102818.16;5037232;28;20027;-70
2021/03/20 04:28:50;;;;;;;4.00;1.90;;;;;;;-2.74;74.77;102826.75;5038334;28;20025;-71
2021/03/20 04:31:26;;;;;;;2.95;2.10;;;;;;;-2.68;74.41;102812.38;5042329;28;20033;-71
2021/03/20 04:34:10;;;;;;;8.40;2.28;;;;;;;-2.79;74.68;102808.72;5035791;28;20549;-71
2021/03/20 04:37:07;;;;;;;5.55;1.80;;;;;;;-2.80;75.46;102819.31;5037879;28;20028;-70
2021/03/20 04:39:37;;;;;;;2.17;1.38;;;;;;;-2.84;75.35;102823.94;5035214;28;20044;-71
2021/03/20 04:42:04;;;;;;;4.65;1.65;;;;;;;-2.78;75.05;102818.25;5042870;28;20024;-70
2021/03/20 04:44:30;;;;;;;5.75;1.60;;;;;;;-2.83;74.80;102828.25;5032673;28;20099;-70
2021/03/20 04:46:56;;;;;;;5.15;1.65;;;;;;;-2.71;74.08;102817.81;5042719;28;20394;-71
2021/03/20 04:49:33;;;;;;;3.63;1.90;;;;;;;-2.76;74.75;102816.34;5032967;28;20116;-70
2021/03/20 04:52:29;;;;;;;5.13;2.05;;;;;;;-2.70;74.36;102822.94;5039734;28;20091;-70
2021/03/20 04:54:55;;;;;;;4.35;1.40;;;;;;;-2.73;74.81;102815.28;5041605;28;20045;-71
2021/03/20 04:57:31;;;;;;;7.35;2.03;;;;;;;-2.62;73.89;102815.38;5040287;28;20131;-71
2021/03/20 05:00:21;;;;;;;3.65;1.67;;;;;;;-2.53;73.43;102819.09;5038278;28;20556;-69
2021/03/20 05:02:53;;;;;;;3.08;1.75;;;;;;;-2.51;73.78;102825.09;5037073;28;20029;-69
2021/03/20 05:05:49;;;;;;;4.68;1.77;;;;;;;-2.51;73.32;102835.59;5031680;28;20033;-69
2021/03/20 05:08:29;;;;;;;3.05;1.60;;;;;;;-2.42;73.10;102831.44;5033465;28;20036;-69
2021/03/20 05:11:04;;;;;;;3.22;1.80;;;;;;;-2.41;73.78;102836.59;5034657;28;20709;-69
2021/03/20 05:13:39;;;;;;;3.72;1.80;;;;;;;-2.41;73.60;102833.97;5035494;28;20029;-69
2021/03/20 05:16:39;;;;;;;5.60;1.60;;;;;;;-2.34;72.90;102827.28;5033990;28;20040;-69
2021/03/20 05:19:06;;;;;;;7.60;1.95;;;;;;;-2.27;73.09;102838.22;5043566;28;20029;-69
2021/03/20 05:21:38;;;;;;;7.80;2.40;;;;;;;-2.28;73.76;102841.78;5035118;28;20390;-69
2021/03/20 05:24:05;;;;;;;4.97;1.60;;;;;;;-2.22;73.32;102836.91;5034008;28;20025;-69
2021/03/20 05:26:33;;;;;;;2.65;1.50;;;;;;;-2.15;73.00;102829.44;5036110;28;20491;-69
2021/03/20 05:28:59;;;;;;;3.10;2.00;;;;;;;-2.09;71.98;102831.59;5037263;28;20083;-69
2021/03/20 05:31:26;;;;;;;5.47;2.45;;;;;;;-2.07;72.63;102834.09;5034284;28;20032;-69
2021/03/20 05:33:52;;;;;;;5.60;2.05;;;;;;;-2.01;72.12;102834.47;5032661;28;20025;-69
2021/03/20 05:36:18;;;;;;;3.67;1.70;;;;;;;-1.96;72.06;102834.16;5037718;28;20070;-69
2021/03/20 05:38:47;;;;;;;6.13;1.85;;;;;;;-1.94;72.00;102843.59;5032505;28;20061;-69
2021/03/20 05:41:25;;;;;;;6.85;2.00;;;;;;;-1.95;72.22;102841.06;5033966;28;20086;-69
2021/03/20 05:43:50;;;;;;;4.45;2.10;;;;;;;-1.89;72.03;102840.59;5035513;28;20527;-69
2021/03/20 05:46:31;;;;;;;2.55;2.10;;;;;;;-1.85;72.00;102855.19;5040752;28;20124;-69
2021/03/20 05:49:21;;;;;;;2.85;1.38;;;;;;;-1.90;71.92;102855.53;5036212;28;20038;-69
2021/03/20 05:51:53;;;;;;;3.97;1.73;;;;;;;-1.99;72.04;102847.47;5035652;28;20116;-69
2021/03/20 05:54:54;;;;;;;3.97;2.08;;;;;;;-1.94;72.03;102848.84;5034575;28;20429;-69
2021/03/20 05:57:40;;;;;;;8.30;2.05;;;;;;;-1.81;71.49;102848.72;5033174;28;20033;-69
2021/03/20 06:00:18;;;;;;;4.45;1.80;;;;;;;-1.68;70.88;102846.84;5035407;28;20064;-69
2021/03/20 06:03:18;;;;;;;4.53;1.98;;;;;;;-1.89;71.38;102848.47;5033960;28;20108;-69
2021/03/20 06:05:52;;;;;;;5.15;1.80;;;;;;;-1.87;71.11;102843.94;5038309;28;20078;-69
2021/03/20 06:08:46;;;;;;;4.03;2.17;;;;;;;-1.91;71.36;102851.22;5042151;28;20060;-69
2021/03/20 06:11:57;;;;;;;4.57;1.77;;;;;;;-2.02;71.93;102850.34;5037664;28;20231;-69
2021/03/20 06:14:37;;;;;;;3.00;1.50;;;;;;;-1.82;71.19;102854.94;5044378;28;20577;-69
2021/03/20 06:17:13;;;;;;;4.57;1.73;;;;;;;-1.82;71.05;102854.94;5037141;28;20136;-69
2021/03/20 06:20:21;;;;;;;3.92;1.88;;;;;;;-1.66;70.36;102839.69;5050376;28;20044;-69
2021/03/20 06:23:14;;;;;;;3.35;1.40;;;;;;;-1.48;70.40;102828.72;5053377;28;20036;-69
2021/03/20 06:25:45;;;;;;;6.80;2.00;;;;;;;-1.39;70.33;102828.84;5035812;28;20036;-69
2021/03/20 06:28:14;;;;;;;2.78;1.88;;;;;;;-1.22;69.39;102824.91;5028128;28;20025;-69
2021/03/20 06:30:50;;;;;;;3.90;2.80;;;;;;;-1.36;69.57;102822.53;5035717;28;20503;-69
2021/03/20 06:33:26;;;;;;;6.57;2.05;;;;;;;-1.57;69.83;102811.88;5035723;28;20041;-69
2021/03/20 06:36:05;;;;;;;3.30;1.70;;;;;;;-1.42;69.65;102804.59;5035257;28;20025;-69
2021/03/20 06:38:44;;;;;;;5.30;1.38;;;;;;;-1.16;68.75;102799.91;5040595;28;20039;-69
2021/03/20 06:41:21;;;;;;;4.82;1.80;;;;;;;-1.10;68.74;102804.69;5042801;28;20040;-69
2021/03/20 06:43:58;;;;;;;3.03;1.52;;;;;;;-1.02;67.70;102803.13;5039273;28;20024;-69
2021/03/20 06:46:33;;;;;;;3.80;1.65;;;;;;;-1.03;67.39;102812.00;5034464;28;20056;-69
2021/03/20 06:49:00;;;;;;;1.27;1.02;;;;;;;-1.01;66.48;102815.34;5035263;28;20029;-69
2021/03/20 06:51:28;;;;;;;2.63;1.80;;;;;;;-1.08;66.13;102819.38;5040510;28;20040;-69
2021/03/20 06:54:16;;;;;;;6.60;1.45;;;;;;;-0.95;66.52;102814.84;5033341;28;20354;-69
2021/03/20 06:56:46;;;;;;;2.10;1.25;;;;;;;-1.03;66.58;102812.00;5037942;28;20033;-69
2021/03/20 06:59:12;;;;;;;5.03;1.67;;;;;;;-1.17;65.94;102814.88;5035857;28;20029;-69
2021/03/20 07:02:01;;;;;;;4.15;1.63;;;;;;;-1.08;66.72;102814.13;5037055;28;20025;-69
2021/03/20 07:05:16;;;;;;;2.83;1.52;;;;;;;-0.89;65.54;102812.69;5033493;28;20021;-69
2021/03/20 07:08:07;;;;;;;3.80;1.73;;;;;;;-0.66;65.20;102814.31;5034075;28;20136;-69
2021/03/20 07:10:41;;;;;;;3.97;1.52;;;;;;;-0.52;65.25;102811.41;5033222;28;20052;-69
2021/03/20 07:13:12;;;;;;;4.63;1.52;;;;;;;-0.46;63.79;102810.88;5041276;28;20028;-69
2021/03/20 07:15:40;;;;;;;4.05;1.45;;;;;;;-0.37;64.53;102812.75;5038025;28;20032;-69
2021/03/20 07:18:33;;;;;;;5.97;1.63;;;;;;;-0.65;63.97;102815.97;5037311;28;20039;-69
2021/03/20 07:21:00;;;;;;;1.73;1.10;;;;;;;-0.44;64.41;102813.38;5036399;28;20391;-69
2021/03/20 07:23:26;;;;;;;4.85;1.60;;;;;;;-0.39;63.89;102827.84;5035641;28;20025;-69
2021/03/20 07:26:04;;;;;;;4.78;1.65;;;;;;;-0.49;63.68;102821.69;5034821;28;20025;-69
2021/03/20 07:28:30;;;;;;;2.25;1.08;;;;;;;-0.64;63.35;102817.66;5038246;28;20040;-69
2021/03/20 07:30:59;;;;;;;3.50;1.40;;;;;;;-0.52;61.97;102818.47;5036675;28;20030;-69
2021/03/20 07:33:38;;;;;;;5.60;1.40;;;;;;;-0.32;62.12;102821.13;5038340;28;20033;-69
2021/03/20 07:36:20;;;;;;;2.33;1.13;;;;;;;-0.29;60.59;102816.56;5036318;28;20036;-69
2021/03/20 07:39:02;;;;;;;3.30;1.33;;;;;;;0.21;60.70;102820.28;5036573;28;20033;-69
2021/03/20 07:41:27;;;;;;;1.80;1.00;;;;;;;0.67;60.34;102821.59;5036968;28;20120;-69
2021/03/20 07:43:57;;;;;;;1.45;1.15;;;;;;;0.45;57.76;102817.34;5033203;28;20112;-69
2021/03/20 07:46:24;;;;;;;3.50;1.15;;;;;;;0.55;58.71;102831.44;5030444;28;20083;-69
2021/03/20 07:48:59;;;;;;;1.85;1.10;;;;;;;0.24;57.43;102825.28;5036313;28;20033;-69
2021/03/20 07:51:25;;;;;;;2.58;1.20;;;;;;;0.24;57.97;102830.56;5039763;28;20029;-69
2021/03/20 07:53:53;;;;;;;2.08;1.25;;;;;;;0.58;58.57;102828.53;5038529;28;20988;-70
2021/03/20 07:56:34;;;;;;;4.32;1.73;;;;;;;0.39;57.19;102828.44;5041311;28;20441;-71
2021/03/20 07:59:29;;;;;;;3.45;1.13;;;;;;;0.71;56.61;102826.47;5032768;28;20032;-71
2021/03/20 08:02:01;;;;;;;3.70;0.93;;;;;;;0.74;55.08;102836.78;5032141;28;20065;-71
2021/03/20 08:04:53;;;;;;;3.55;1.17;;;;;;;0.95;55.58;102835.88;5032970;28;20082;-71
2021/03/20 08:07:46;;;;;;;3.55;1.10;;;;;;;1.23;53.00;102832.47;5040985;28;20392;-70
2021/03/20 08:10:18;;;;;;;1.98;1.73;;;;;;;1.37;52.71;102840.03;5033814;28;20446;-71
2021/03/20 08:12:54;;;;;;;3.65;1.38;;;;;;;0.70;53.18;102845.06;5034245;28;20117;-71
2021/03/20 08:15:30;;;;;;;1.80;1.20;;;;;;;0.76;53.85;102837.50;5035735;28;20091;-71
2021/03/20 08:17:58;;;;;;;3.13;1.30;;;;;;;0.68;54.26;102839.09;5032022;28;20040;-71
2021/03/20 08:20:25;;;;;;;3.70;1.00;;;;;;;0.46;54.92;102840.94;5035649;28;20030;-70
2021/03/20 08:23:24;;;;;;;2.15;1.05;;;;;;;0.43;54.92;102845.66;5033906;28;20082;-71
2021/03/20 08:25:58;;;;;;;4.18;1.50;;;;;;;0.57;55.17;102842.69;5035538;28;20032;-71
2021/03/20 08:28:55;;;;;;;3.17;1.40;;;;;;;0.81;55.21;102837.91;5033500;28;20025;-71
2021/03/20 08:31:43;;;;;;;4.28;1.20;;;;;;;0.98;54.83;102840.91;5035877;28;20082;-71
2021/03/20 08:34:36;;;;;;;1.95;1.50;;;;;;;0.85;54.72;102836.69;5035287;28;20059;-71
2021/03/20 08:37:36;;;;;;;2.30;1.27;;;;;;;1.44;54.21;102822.66;5035628;28;20044;-71
2021/03/20 08:40:14;;;;;;;2.95;1.00;;;;;;;1.70;54.35;102824.75;5035612;28;20025;-71
2021/03/20 08:42:58;;;;;;;1.95;1.20;;;;;;;2.02;53.13;102824.47;5035509;28;20420;-71
2021/03/20 08:45:36;;;;;;;5.72;1.42;;;;;;;2.05;51.31;102827.66;5035518;28;20029;-71
2021/03/20 08:48:14;;;;;;;2.25;1.67;;;;;;;2.47;51.30;102826.47;5034478;28;20028;-70
2021/03/20 08:50:46;;;;;;;2.13;0.77;;;;;;;2.62;50.33;102828.50;5039057;28;20039;-71
2021/03/20 08:53:17;;;;;;;3.35;1.48;;;;;;;2.84;49.09;102837.88;5039998;28;20029;-71
2021/03/20 08:55:50;;;;;;;1.92;1.10;;;;;;;3.06;49.56;102833.19;5041635;28;20036;-71
2021/03/20 08:58:40;;;;;;;6.63;1.80;;;;;;;2.68;48.65;102833.19;5055996;28;20064;-71
2021/03/20 09:01:27;;;;;;;3.40;1.80;;;;;;;2.84;48.55;102842.34;5038602;28;20108;-71
2021/03/20 09:03:57;;;;;;;3.60;1.65;;;;;;;2.86;48.82;102837.72;5039431;28;20043;-71
2021/03/20 09:06:34;;;;;;;3.63;1.63;;;;;;;3.16;48.57;102840.09;5033941;28;20029;-71
2021/03/20 09:09:23;;;;;;;2.58;1.95;;;;;;;3.32;49.40;102832.34;5034204;28;20041;-71
2021/03/20 09:12:02;;;;;;;3.88;1.70;;;;;;;3.27;48.32;102837.25;5035680;28;20333;-71
2021/03/20 09:14:32;;;;;;;6.47;1.65;;;;;;;3.06;49.56;102839.34;5033652;28;20554;-71
2021/03/20 09:17:03;;;;;;;3.45;1.80;;;;;;;3.17;49.78;102839.13;5038635;28;20091;-71
2021/03/20 09:19:39;;;;;;;4.93;1.85;;;;;;;3.26;48.56;102830.28;5035224;28;20115;-71
2021/03/20 09:22:18;;;;;;;6.93;2.50;;;;;;;3.32;47.82;102831.50;5038341;28;20128;-70
2021/03/20 09:24:53;;;;;;;3.13;1.90;;;;;;;2.96;48.57;102826.13;5040936;28;20029;-70
2021/03/20 09:27:56;;;;;;;4.63;1.65;;;;;;;2.96;49.16;102833.25;5039142;28;20039;-71
2021/03/20 09:30:39;;;;;;;4.70;1.50;;;;;;;3.34;48.49;102822.41;5035438;28;20029;-70
2021/03/20 09:33:27;;;;;;;4.40;1.38;;;;;;;3.45;48.42;102823.19;5035478;28;20024;-71
2021/03/20 09:35:59;;;;;;;4.47;2.17;;;;;;;3.62;48.63;102832.97;5039554;28;20041;-71
2021/03/20 09:38:36;;;;;;;4.50;1.85;;;;;;;4.04;46.81;102821.72;5032423;28;20025;-70
2021/03/20 09:41:06;;;;;;;6.18;1.73;;;;;;;4.22;47.63;102827.81;5032991;28;20032;-71
2021/03/20 09:43:40;;;;;;;4.50;1.73;;;;;;;4.15;47.45;102822.31;5036996;28;20441;-70
2021/03/20 09:46:25;;;;;;;3.90;1.58;;;;;;;4.26;46.31;102826.50;5039136;28;20036;-70
2021/03/20 09:48:52;;;;;;;4.00;2.08;;;;;;;4.10;47.74;102818.44;5034399;28;20036;-71
2021/03/20 09:51:46;;;;;;;6.38;3.55;;;;;;;4.18;48.09;102821.16;5036900;28;20033;-71
2021/03/20 09:56:56;;;;;;;7.20;1.67;;;;;;;3.41;48.68;102824.44;5036330;28;20040;-70
2021/03/20 09:59:28;;;;;;;7.15;2.17;;;;;;;3.27;48.08;102815.22;5037556;28;20503;-71
2021/03/20 10:02:01;;;;;;;2.85;1.63;;;;;;;3.46;48.19;102806.31;5050040;28;20025;-71
2021/03/20 10:04:48;;;;;;;3.80;2.40;;;;;;;3.71;47.98;102808.19;5035045;28;20063;-71
2021/03/20 10:07:23;;;;;;;5.25;2.58;;;;;;;4.18;46.46;102810.56;5051716;28;20087;-71
2021/03/20 10:10:27;;;;;;;4.72;2.13;;;;;;;3.90;46.13;102812.50;5039321;28;20057;-71
2021/03/20 10:13:15;;;;;;;3.85;2.10;;;;;;;4.51;46.49;102816.91;5036085;28;20036;-71
2021/03/20 10:16:04;;;;;;;5.07;2.85;;;;;;;4.38;44.56;102808.53;5039178;28;20411;-71
2021/03/20 10:18:43;;;;;;;3.85;1.85;;;;;;;4.74;44.68;102801.25;5040267;28;20111;-70
2021/03/20 10:21:18;;;;;;;4.60;2.35;;;;;;;4.63;45.00;102793.53;5037242;28;20032;-71
2021/03/20 10:23:53;;;;;;;3.30;1.70;;;;;;;4.45;45.87;102791.81;5041770;28;20032;-70
2021/03/20 10:26:22;;;;;;;4.88;2.20;;;;;;;4.12;44.83;102774.84;5040687;28;20155;-70
2021/03/20 10:28:57;;;;;;;2.80;1.70;;;;;;;4.13;44.67;102779.19;5040714;28;20392;-71
2021/03/20 10:31:24;;;;;;;;;;;;;;;3.94;45.58;102771.41;5038057;28;20032;-71
2021/03/20 10:34:01;;;;;;;6.03;2.20;;;;;;;4.87;45.15;102747.69;5039637;28;19920;-71
2021/03/20 10:36:31;;;;;;;4.13;1.95;;;;;;;5.48;44.55;102757.91;5037434;28;20029;-71
2021/03/20 10:38:57;;;;;;;4.65;2.17;;;;;;;5.56;43.80;102757.06;5039510;28;20017;-71
2021/03/20 10:41:29;;;;;;;3.75;1.70;;;;;;;5.47;43.36;102750.94;5040494;28;20033;-71
2021/03/20 10:44:01;;;;;;;2.92;2.05;;;;;;;5.33;41.95;102754.25;5032992;28;20029;-71
2021/03/20 10:46:32;;;;;;;4.72;2.35;;;;;;;4.58;42.73;102761.34;5041401;28;20151;-71
2021/03/20 10:49:02;;;;;;;4.35;2.55;;;;;;;3.93;43.22;102759.97;5032882;28;20820;-70
2021/03/20 10:51:39;;;;;;;6.53;2.70;;;;;;;4.76;43.42;102762.06;5039728;28;20020;-71
2021/03/20 10:54:15;;;;;;;3.78;2.10;;;;;;;4.87;42.99;102747.69;5037737;28;20025;-71
2021/03/20 10:56:42;;;;;;;6.53;2.75;;;;;;;5.41;42.73;102751.63;5041794;28;20033;-70
2021/03/20 10:59:15;;;;;;;3.20;2.38;;;;;;;5.72;40.72;102754.41;5036544;28;20025;-71
2021/03/20 11:01:41;;;;;;;3.42;2.15;;;;;;;5.71;40.25;102758.91;5037648;28;20028;-71
2021/03/20 11:04:13;;;;;;;3.40;2.03;;;;;;;5.89;41.18;102756.06;5041077;28;20394;-71
2021/03/20 11:06:38;;;;;;;5.00;2.08;;;;;;;5.56;41.29;102744.63;5038031;28;20647;-71
2021/03/20 11:09:23;;;;;;;3.42;1.88;;;;;;;5.76;40.76;102751.28;5038242;28;20112;-71
2021/03/20 11:11:49;;;;;;;5.22;1.83;;;;;;;6.10;40.56;102747.59;5038954;28;20060;-71
2021/03/20 11:14:19;;;;;;;3.72;2.13;;;;;;;5.19;41.69;102744.25;5039501;28;20124;-71
2021/03/20 11:16:55;;;;;;;4.68;2.80;;;;;;;4.25;42.09;102739.94;5040808;28;20032;-70
2021/03/20 11:19:33;;;;;;;3.50;1.50;;;;;;;4.13;43.44;102741.19;5040494;28;20534;-71
2021/03/20 11:22:14;;;;;;;5.55;2.08;;;;;;;4.25;43.57;102737.28;5039800;28;20483;-70
2021/03/20 11:24:40;;;;;;;7.18;2.30;;;;;;;4.13;43.29;102727.94;5040817;28;20106;-71
2021/03/20 11:27:18;;;;;;;6.07;2.28;;;;;;;3.77;44.21;102730.72;5036252;28;20131;-71
2021/03/20 11:29:46;;;;;;;4.72;1.50;;;;;;;3.92;43.81;102725.66;5037935;28;20032;-72
2021/03/20 11:32:23;;;;;;;4.60;1.90;;;;;;;4.31;43.51;102720.75;5024630;28;20098;-68
2021/03/20 11:34:59;;;;;;;3.08;1.65;;;;;;;4.47;43.01;102712.84;5037224;28;20041;-69
2021/03/20 11:37:26;;;;;;;3.42;1.80;;;;;;;4.18;43.30;102715.03;5041988;28;20032;-71
2021/03/20 11:39:54;;;;;;;2.33;1.63;;;;;;;4.42;42.75;102701.03;5040895;28;20091;-69
2021/03/20 11:42:24;;;;;;;3.03;1.70;;;;;;;3.95;39.97;102709.44;5051561;28;20170;-72
2021/03/20 11:44:50;;;;;;;4.45;2.63;;;;;;;4.60;40.08;102706.25;5054225;28;20040;-75
2021/03/20 11:47:21;;;;;;;3.85;2.05;;;;;;;5.00;39.43;102695.72;5031892;28;20052;-70
2021/03/20 11:49:50;;;;;;;4.32;1.65;;;;;;;5.32;39.50;102691.44;5036913;28;20033;-72
2021/03/20 11:52:22;;;;;;;5.85;2.30;;;;;;;4.70;38.60;102689.22;5033868;28;20041;-75
2021/03/20 11:55:01;;;;;;;2.45;1.73;;;;;;;5.41;38.25;102687.81;5028642;28;20040;-74
2021/03/20 11:57:36;;;;;;;4.13;1.70;;;;;;;6.31;37.11;102688.50;5032977;28;20029;-72
2021/03/20 12:00:23;;;;;;;2.03;1.50;;;;;;;7.54;34.46;102682.19;5037860;28;20079;-68
2021/03/20 12:02:49;;;;;;;4.05;1.85;;;;;;;6.63;34.88;102682.16;5038745;28;20029;-69
2021/03/20 12:05:14;;;;;;;5.65;1.95;;;;;;;7.20;34.05;102679.16;5036605;28;20025;-69
2021/03/20 12:07:41;;;;;;;3.00;1.63;;;;;;;7.55;34.15;102670.53;5028919;28;20408;-69
2021/03/20 12:10:12;;;;;;;2.47;1.73;;;;;;;6.98;34.73;102670.97;5032342;28;20033;-68